createdAt,value
2019-05-16T00:00:46.496Z,58.95
2019-05-16T00:03:19.231Z,59.15
2019-05-16T00:05:54.557Z,60.67
2019-05-16T00:08:28.386Z,62.53
2019-05-16T00:11:00.895Z,63.88
2019-05-16T00:13:33.635Z,61.34
2019-05-16T00:16:07.993Z,57.66
2019-05-16T00:18:40.480Z,55.59
2019-05-16T00:21:13.141Z,56.18
2019-05-16T00:23:48.309Z,57.75
2019-05-16T00:26:20.050Z,59.19
2019-05-16T00:28:52.610Z,60.21
2019-05-16T00:31:25.100Z,61.70
2019-05-16T00:33:57.933Z,62.51
2019-05-16T00:36:30.570Z,64.77
2019-05-16T00:39:04.910Z,61.18
2019-05-16T00:41:38.574Z,57.60
2019-05-16T00:44:11.315Z,55.48
2019-05-16T00:46:43.866Z,56.32
2019-05-16T00:49:18.580Z,57.26
2019-05-16T00:51:50.855Z,58.78
2019-05-16T00:54:23.340Z,59.95
2019-05-16T00:56:57.817Z,60.85
2019-05-16T00:59:31.326Z,62.70
2019-05-16T01:02:03.800Z,64.29
2019-05-16T01:04:38.147Z,61.36
2019-05-16T01:07:10.790Z,57.97
2019-05-16T01:09:43.485Z,55.26
2019-05-16T01:12:17.834Z,56.09
2019-05-16T01:14:50.630Z,57.49
2019-05-16T01:17:24.575Z,58.79
2019-05-16T01:19:58.291Z,59.80
2019-05-16T01:22:30.790Z,61.06
2019-05-16T01:25:03.478Z,62.58
2019-05-16T01:27:38.369Z,64.31
2019-05-16T01:30:10.810Z,61.10
2019-05-16T01:32:43.236Z,57.44
2019-05-16T01:35:16.106Z,55.26
2019-05-16T01:37:49.017Z,56.08
2019-05-16T01:40:21.730Z,57.36
2019-05-16T01:42:54.353Z,58.92
2019-05-16T01:45:27.764Z,60.03
2019-05-16T01:48:00.425Z,61.61
2019-05-16T01:50:32.986Z,61.84
2019-05-16T01:53:05.680Z,63.62
2019-05-16T01:55:38.335Z,66.35
2019-05-16T01:58:11.145Z,62.79
2019-05-16T02:00:52.667Z,58.63
2019-05-16T02:03:18.972Z,56.03
2019-05-16T02:05:51.790Z,56.73
2019-05-16T02:08:25.275Z,58.07
2019-05-16T02:10:58.365Z,59.31
2019-05-16T02:13:31.110Z,60.71
2019-05-16T02:16:03.900Z,61.96
2019-05-16T02:18:38.211Z,63.26
2019-05-16T02:21:11.085Z,65.17
2019-05-16T02:23:43.765Z,61.02
2019-05-16T02:26:18.913Z,57.06
2019-05-16T02:28:51.098Z,54.93
2019-05-16T02:31:24.115Z,55.99
2019-05-16T02:33:56.950Z,57.42
2019-05-16T02:36:31.426Z,58.84
2019-05-16T02:39:05.240Z,60.17
2019-05-16T02:41:37.946Z,61.40
2019-05-16T02:44:12.017Z,62.65
2019-05-16T02:46:44.750Z,64.08
2019-05-16T02:49:17.417Z,59.67
2019-05-16T02:51:51.189Z,56.70
2019-05-16T02:54:24.322Z,57.72
2019-05-16T02:56:56.990Z,59.14
2019-05-16T02:59:30.775Z,60.24
2019-05-16T03:02:03.680Z,61.45
2019-05-16T03:04:39.884Z,62.80
2019-05-16T03:07:13.537Z,64.42
2019-05-16T03:09:46.715Z,60.25
2019-05-16T03:12:21.289Z,55.89
2019-05-16T03:14:54.507Z,54.11
2019-05-16T03:17:31.797Z,55.27
2019-05-16T03:20:05.297Z,56.89
2019-05-16T03:22:40.972Z,58.36
2019-05-16T03:25:13.984Z,59.78
2019-05-16T03:27:46.738Z,61.22
2019-05-16T03:30:23.584Z,62.24
2019-05-16T03:32:55.035Z,63.89
2019-05-16T03:35:33.334Z,59.83
2019-05-16T03:38:05.590Z,55.78
2019-05-16T03:40:41.017Z,53.82
2019-05-16T03:43:12.328Z,55.11
2019-05-16T03:45:45.028Z,56.73
2019-05-16T03:48:20.963Z,58.21
2019-05-16T03:50:51.982Z,59.76
2019-05-16T03:53:24.921Z,61.06
2019-05-16T03:55:57.561Z,62.52
2019-05-16T03:58:30.984Z,63.80
2019-05-16T04:01:04.030Z,60.18
2019-05-16T04:03:36.901Z,56.27
2019-05-16T04:06:11.900Z,54.50
2019-05-16T04:08:44.115Z,55.50
2019-05-16T04:11:22.107Z,57.04
2019-05-16T04:13:51.246Z,58.56
2019-05-16T04:16:23.597Z,59.86
2019-05-16T04:18:56.518Z,61.15
2019-05-16T04:21:32.256Z,62.48
2019-05-16T04:24:03.689Z,63.95
2019-05-16T04:26:36.416Z,60.19
2019-05-16T04:29:11.957Z,56.47
2019-05-16T04:31:44.427Z,54.74
2019-05-16T04:34:17.006Z,56.05
2019-05-16T04:36:51.494Z,57.58
2019-05-16T04:39:23.952Z,59.08
2019-05-16T04:41:56.567Z,60.33
2019-05-16T04:44:31.076Z,61.59
2019-05-16T04:47:03.558Z,62.83
2019-05-16T04:49:36.241Z,64.02
2019-05-16T04:52:11.281Z,60.24
2019-05-16T04:54:43.376Z,56.13
2019-05-16T04:57:15.971Z,54.23
2019-05-16T04:59:50.874Z,55.46
2019-05-16T05:02:22.754Z,56.99
2019-05-16T05:04:55.592Z,58.42
2019-05-16T05:07:30.972Z,59.94
2019-05-16T05:10:02.573Z,61.19
2019-05-16T05:12:35.982Z,62.63
2019-05-16T05:15:11.175Z,63.81
2019-05-16T05:17:43.496Z,59.96
2019-05-16T05:20:16.430Z,56.03
2019-05-16T05:22:49.951Z,54.46
2019-05-16T05:25:22.713Z,55.68
2019-05-16T05:27:55.241Z,57.16
2019-05-16T05:30:30.237Z,58.54
2019-05-16T05:33:03.003Z,59.91
2019-05-16T05:35:35.833Z,61.18
2019-05-16T05:38:10.371Z,62.34
2019-05-16T05:40:42.490Z,63.67
2019-05-16T05:43:15.011Z,60.13
2019-05-16T05:45:47.725Z,56.41
2019-05-16T05:48:21.708Z,54.45
2019-05-16T05:50:54.942Z,55.75
2019-05-16T05:53:29.843Z,57.19
2019-05-16T05:56:01.852Z,58.66
2019-05-16T05:58:34.356Z,60.10
2019-05-16T06:01:07.213Z,61.32
2019-05-16T06:03:40.190Z,62.35
2019-05-16T06:06:13.031Z,63.76
2019-05-16T06:08:45.530Z,60.11
2019-05-16T06:11:20.320Z,56.12
2019-05-16T06:13:52.771Z,54.28
2019-05-16T06:16:25.561Z,55.37
2019-05-16T06:19:00.771Z,57.09
2019-05-16T06:21:33.883Z,58.67
2019-05-16T06:24:07.180Z,60.06
2019-05-16T06:26:39.976Z,61.35
2019-05-16T06:29:12.863Z,62.55
2019-05-16T06:31:45.730Z,63.63
2019-05-16T06:34:20.769Z,59.62
2019-05-16T06:36:53.050Z,57.05
2019-05-16T06:39:37.523Z,57.80
2019-05-16T06:42:00.506Z,59.48
2019-05-16T06:44:34.271Z,60.93
2019-05-16T06:47:16.898Z,62.28
2019-05-16T06:49:41.487Z,63.02
2019-05-16T06:52:14.430Z,63.47
2019-05-16T06:54:46.941Z,60.20
2019-05-16T06:57:20.612Z,56.04
2019-05-16T06:59:53.811Z,55.09
2019-05-16T07:02:30.608Z,54.79
2019-05-16T07:05:01.103Z,56.82
2019-05-16T07:07:35.147Z,57.67
2019-05-16T07:10:09.789Z,58.72
2019-05-16T07:12:43.805Z,59.57
2019-05-16T07:15:20.453Z,60.92
2019-05-16T07:17:52.680Z,62.26
2019-05-16T07:20:25.401Z,62.81
2019-05-16T07:22:57.919Z,60.20
2019-05-16T07:25:30.640Z,56.83
2019-05-16T07:28:03.510Z,55.90
2019-05-16T07:30:36.180Z,56.34
2019-05-16T07:33:09.826Z,57.79
2019-05-16T07:35:42.352Z,58.99
2019-05-16T07:38:15.580Z,60.07
2019-05-16T07:40:50.790Z,61.33
2019-05-16T07:43:22.280Z,62.51
2019-05-16T07:45:54.680Z,63.15
2019-05-16T07:48:31.737Z,60.41
2019-05-16T07:51:05.781Z,56.06
2019-05-16T07:53:40.065Z,54.53
2019-05-16T07:56:12.404Z,55.65
2019-05-16T07:58:44.981Z,56.46
2019-05-16T08:01:17.361Z,57.39
2019-05-16T08:03:50.988Z,59.05
2019-05-16T08:06:23.741Z,60.66
2019-05-16T08:08:56.623Z,61.22
2019-05-16T08:11:30.666Z,62.74
2019-05-16T08:14:03.221Z,63.54
2019-05-16T08:16:35.951Z,59.66
2019-05-16T08:19:10.282Z,56.71
2019-05-16T08:21:43.040Z,57.98
2019-05-16T08:24:16.980Z,59.27
2019-05-16T08:26:51.586Z,60.61
2019-05-16T08:29:24.271Z,61.35
2019-05-16T08:32:01.802Z,62.27
2019-05-16T08:34:35.948Z,63.74
2019-05-16T08:37:30.632Z,62.80
2019-05-16T08:39:42.895Z,59.67
2019-05-16T08:42:15.524Z,56.26
2019-05-16T08:44:47.895Z,54.84
2019-05-16T08:47:21.275Z,56.10
2019-05-16T08:49:53.935Z,56.91
2019-05-16T08:52:26.577Z,58.30
2019-05-16T08:55:03.139Z,59.77
2019-05-16T08:57:33.565Z,60.87
2019-05-16T09:00:12.729Z,62.37
2019-05-16T09:02:42.955Z,62.95
2019-05-16T09:05:15.935Z,58.53
2019-05-16T09:07:48.538Z,56.29
2019-05-16T09:12:57.210Z,58.27
2019-05-16T09:15:29.537Z,59.14
2019-05-16T09:18:02.157Z,59.98
2019-05-16T09:20:37.383Z,60.69
2019-05-16T09:23:09.016Z,61.93
2019-05-16T09:25:41.419Z,62.91
2019-05-16T09:28:16.751Z,63.69
2019-05-16T09:30:48.335Z,59.98
2019-05-16T09:33:21.036Z,55.99
2019-05-16T09:35:53.596Z,54.41
2019-05-16T09:38:28.488Z,55.26
2019-05-16T09:41:00.336Z,56.65
2019-05-16T09:43:33.076Z,57.74
2019-05-16T09:46:07.845Z,59.35
2019-05-16T09:48:39.716Z,60.89
2019-05-16T09:51:12.135Z,62.20
2019-05-16T09:53:47.007Z,63.49
2019-05-16T09:56:18.859Z,64.24
2019-05-16T09:58:51.257Z,59.17
2019-05-16T10:01:23.956Z,56.59
2019-05-16T10:03:56.383Z,57.32
2019-05-16T10:06:28.996Z,58.19
2019-05-16T10:09:01.561Z,59.89
2019-05-16T10:11:40.995Z,61.32
2019-05-16T10:14:09.500Z,62.64
2019-05-16T10:16:41.795Z,63.05
2019-05-16T10:19:16.802Z,58.64
2019-05-16T10:21:50.189Z,55.64
2019-05-16T10:24:22.866Z,56.72
2019-05-16T10:26:57.146Z,57.53
2019-05-16T10:29:29.750Z,58.11
2019-05-16T10:32:02.191Z,59.42
2019-05-16T10:34:37.110Z,60.24
2019-05-16T10:37:09.906Z,61.37
2019-05-16T10:39:43.466Z,62.91
2019-05-16T10:42:27.439Z,63.41
2019-05-16T10:44:51.645Z,58.95
2019-05-16T10:47:24.068Z,56.33
2019-05-16T10:49:56.745Z,56.63
2019-05-16T10:52:29.166Z,57.80
2019-05-16T10:55:02.649Z,58.63
2019-05-16T10:57:37.824Z,59.38
2019-05-16T11:00:21.571Z,60.69
2019-05-16T11:02:44.922Z,61.56
2019-05-16T11:05:29.871Z,62.12
2019-05-16T11:07:53.465Z,62.87
2019-05-16T11:10:29.537Z,62.81
2019-05-16T11:13:00.645Z,57.03
2019-05-16T11:15:33.235Z,55.58
2019-05-16T11:18:06.878Z,55.78
2019-05-16T11:20:39.621Z,56.11
2019-05-16T11:23:12.120Z,57.27
2019-05-16T11:25:46.970Z,58.11
2019-05-16T11:28:19.293Z,59.09
2019-05-16T11:30:51.804Z,60.10
2019-05-16T11:33:27.893Z,60.77
2019-05-16T11:35:58.665Z,61.75
2019-05-16T11:38:31.182Z,62.93
2019-05-16T11:41:03.526Z,62.34
2019-05-16T11:43:36.681Z,58.73
2019-05-16T11:46:09.385Z,55.58
2019-05-16T11:48:42.266Z,55.96
2019-05-16T11:51:14.625Z,57.13
2019-05-16T11:53:47.708Z,57.71
2019-05-16T11:56:20.125Z,58.51
2019-05-16T11:58:52.446Z,59.10
2019-05-16T12:01:27.267Z,59.17
2019-05-16T12:03:58.866Z,60.72
2019-05-16T12:06:32.825Z,60.12
2019-05-16T12:09:08.085Z,61.04
2019-05-16T12:11:40.326Z,61.28
2019-05-16T12:14:12.730Z,61.48
2019-05-16T12:16:47.300Z,62.52
2019-05-16T12:19:19.088Z,61.57
2019-05-16T12:21:51.525Z,55.94
2019-05-16T12:24:36.382Z,55.23
2019-05-16T12:27:02.068Z,55.85
2019-05-16T12:29:37.087Z,55.33
2019-05-16T12:32:08.770Z,56.64
2019-05-16T12:34:41.425Z,56.88
2019-05-16T12:37:13.906Z,57.99
2019-05-16T12:39:47.153Z,58.74
2019-05-16T12:42:20.071Z,60.40
2019-05-16T12:44:52.345Z,60.39
2019-05-16T12:47:24.711Z,60.60
2019-05-16T12:49:57.068Z,61.24
2019-05-16T12:52:29.508Z,62.26
2019-05-16T12:55:06.126Z,62.46
2019-05-16T12:57:38.708Z,62.34
2019-05-16T13:00:15.652Z,58.71
2019-05-16T13:02:47.863Z,54.94
2019-05-16T13:05:20.635Z,55.18
2019-05-16T13:07:53.045Z,57.11
2019-05-16T13:10:27.072Z,56.95
2019-05-16T13:12:59.565Z,57.64
2019-05-16T13:15:32.027Z,57.59
2019-05-16T13:18:04.385Z,57.91
2019-05-16T13:20:39.266Z,57.88
2019-05-16T13:23:14.469Z,60.32
2019-05-16T13:25:48.206Z,60.09
2019-05-16T13:28:20.826Z,60.78
2019-05-16T13:30:53.067Z,61.77
2019-05-16T13:33:27.115Z,62.64
2019-05-16T13:35:59.649Z,62.84
2019-05-16T13:38:32.228Z,57.85
2019-05-16T13:41:07.342Z,53.55
2019-05-16T13:43:39.166Z,54.90
2019-05-16T13:46:11.426Z,54.65
2019-05-16T13:48:44.786Z,55.68
2019-05-16T13:51:19.147Z,55.95
2019-05-16T13:53:51.245Z,57.26
2019-05-16T13:56:27.163Z,56.83
2019-05-16T13:58:58.927Z,58.26
2019-05-16T14:01:31.342Z,58.12
2019-05-16T14:04:09.063Z,59.54
2019-05-16T14:06:41.444Z,61.11
2019-05-16T14:09:12.162Z,60.84
2019-05-16T14:11:46.469Z,61.40
2019-05-16T14:14:33.643Z,62.58
2019-05-16T14:16:55.545Z,61.57
2019-05-16T14:19:27.846Z,57.55
2019-05-16T14:22:00.305Z,53.89
2019-05-16T14:24:33.007Z,55.00
2019-05-16T14:27:06.627Z,55.43
2019-05-16T14:29:39.425Z,54.21
2019-05-16T14:32:11.910Z,54.95
2019-05-16T14:34:50.130Z,56.03
2019-05-16T14:37:18.394Z,56.79
2019-05-16T14:39:50.812Z,58.72
2019-05-16T14:42:23.126Z,59.60
2019-05-16T14:45:06.435Z,59.81
2019-05-16T14:47:29.648Z,60.73
2019-05-16T14:50:03.327Z,61.55
2019-05-16T14:52:36.642Z,62.71
2019-05-16T14:55:09.566Z,62.10
2019-05-16T14:57:42.006Z,57.74
2019-05-16T15:00:14.805Z,55.03
2019-05-16T15:02:48.298Z,54.74
2019-05-16T15:05:21.285Z,55.34
2019-05-16T15:07:54.105Z,56.69
2019-05-16T15:10:26.989Z,57.48
2019-05-16T15:12:59.827Z,58.44
2019-05-16T15:15:32.326Z,59.20
2019-05-16T15:18:08.036Z,59.35
2019-05-16T15:20:39.503Z,60.40
2019-05-16T15:23:12.074Z,60.63
2019-05-16T15:25:44.387Z,61.11
2019-05-16T15:28:17.336Z,61.92
2019-05-16T15:30:49.831Z,62.51
2019-05-16T15:33:22.245Z,62.91
2019-05-16T15:35:57.509Z,58.00
2019-05-16T15:38:28.705Z,55.63
2019-05-16T15:41:01.432Z,56.65
2019-05-16T15:43:36.666Z,56.11
2019-05-16T15:46:09.448Z,56.88
2019-05-16T15:48:42.831Z,57.70
2019-05-16T15:51:20.392Z,59.44
2019-05-16T15:53:50.841Z,59.93
2019-05-16T15:56:23.960Z,60.31
2019-05-16T15:58:56.586Z,61.28
2019-05-16T16:01:29.191Z,61.09
2019-05-16T16:04:02.112Z,61.98
2019-05-16T16:06:37.731Z,62.21
2019-05-16T16:09:09.896Z,62.91
2019-05-16T16:11:42.790Z,63.21
2019-05-16T16:14:17.187Z,58.48
2019-05-16T16:16:50.066Z,55.42
2019-05-16T16:19:23.060Z,56.21
2019-05-16T16:21:57.844Z,56.84
2019-05-16T16:24:30.472Z,57.75
2019-05-16T16:27:03.396Z,58.45
2019-05-16T16:29:36.711Z,60.09
2019-05-16T16:32:09.525Z,60.65
2019-05-16T16:34:42.451Z,61.22
2019-05-16T16:37:16.789Z,62.24
2019-05-16T16:39:49.960Z,62.48
2019-05-16T16:42:22.771Z,62.78
2019-05-16T16:44:56.570Z,58.39
2019-05-16T16:47:29.121Z,55.53
2019-05-16T16:50:01.884Z,55.63
2019-05-16T16:52:37.409Z,56.55
2019-05-16T16:55:09.707Z,57.58
2019-05-16T16:57:42.460Z,58.18
2019-05-16T17:00:19.457Z,59.50
2019-05-16T17:03:03.327Z,60.27
2019-05-16T17:05:27.745Z,61.40
2019-05-16T17:08:00.340Z,62.45
2019-05-16T17:10:33.195Z,62.77
2019-05-16T17:13:06.843Z,58.09
2019-05-16T17:15:42.268Z,55.42
2019-05-16T17:18:17.449Z,55.91
2019-05-16T17:20:49.837Z,56.93
2019-05-16T17:23:22.570Z,58.14
2019-05-16T17:25:56.678Z,59.01
2019-05-16T17:28:29.676Z,60.29
2019-05-16T17:31:02.606Z,61.12
2019-05-16T17:33:38.148Z,61.88
2019-05-16T17:36:10.185Z,62.64
2019-05-16T17:38:43.400Z,63.48
2019-05-16T17:41:16.830Z,58.32
2019-05-16T17:43:49.850Z,55.58
2019-05-16T17:46:33.998Z,56.13
2019-05-16T17:48:57.153Z,57.06
2019-05-16T17:51:30.285Z,58.13
2019-05-16T17:54:03.040Z,58.66
2019-05-16T17:56:37.036Z,59.53
2019-05-16T17:59:10.190Z,60.84
2019-05-16T18:01:43.040Z,61.20
2019-05-16T18:04:17.308Z,61.97
2019-05-16T18:06:50.594Z,63.34
2019-05-16T18:09:23.615Z,64.41
2019-05-16T18:11:57.444Z,60.03
2019-05-16T18:14:30.275Z,55.30
2019-05-16T18:17:02.965Z,53.44
2019-05-16T18:19:37.288Z,54.04
2019-05-16T18:22:10.221Z,54.98
2019-05-16T18:24:42.672Z,56.28
2019-05-16T18:27:17.230Z,57.78
2019-05-16T18:29:50.165Z,58.41
2019-05-16T18:32:23.125Z,59.60
2019-05-16T18:34:56.407Z,61.12
2019-05-16T18:37:33.314Z,62.37
2019-05-16T18:40:07.304Z,63.41
2019-05-16T18:42:40.226Z,58.56
2019-05-16T18:45:16.319Z,55.57
2019-05-16T18:47:48.346Z,56.22
2019-05-16T18:50:21.080Z,57.16
2019-05-16T18:52:56.947Z,58.61
2019-05-16T18:55:29.753Z,60.17
2019-05-16T18:58:04.943Z,60.05
2019-05-16T19:00:37.530Z,61.83
2019-05-16T19:03:10.670Z,62.32
2019-05-16T19:05:43.476Z,63.03
2019-05-16T19:08:16.482Z,59.12
2019-05-16T19:10:49.200Z,56.42
2019-05-16T19:13:21.975Z,57.17
2019-05-16T19:15:57.009Z,58.09
2019-05-16T19:18:29.511Z,59.12
2019-05-16T19:21:02.045Z,60.16
2019-05-16T19:23:37.413Z,61.27
2019-05-16T19:26:09.830Z,62.56
2019-05-16T19:28:42.416Z,63.93
2019-05-16T19:31:17.180Z,60.38
2019-05-16T19:33:51.172Z,56.71
2019-05-16T19:36:23.876Z,54.95
2019-05-16T19:38:57.126Z,56.03
2019-05-16T19:41:29.640Z,57.14
2019-05-16T19:44:02.665Z,58.52
2019-05-16T19:46:38.609Z,59.33
2019-05-16T19:49:10.465Z,60.83
2019-05-16T19:51:45.844Z,62.42
2019-05-16T19:54:18.675Z,63.26
2019-05-16T19:56:52.380Z,59.63
2019-05-16T19:59:27.088Z,56.95
2019-05-16T20:01:59.611Z,57.47
2019-05-16T20:04:32.555Z,58.61
2019-05-16T20:07:07.416Z,59.52
2019-05-16T20:09:41.105Z,60.81
2019-05-16T20:12:13.741Z,61.79
2019-05-16T20:14:47.301Z,62.77
2019-05-16T20:17:19.936Z,64.33
2019-05-16T20:19:52.625Z,60.80
2019-05-16T20:22:26.142Z,56.99
2019-05-16T20:24:58.980Z,55.15
2019-05-16T20:27:31.785Z,55.95
2019-05-16T20:30:06.674Z,57.45
2019-05-16T20:32:39.845Z,58.57
2019-05-16T20:35:13.020Z,59.94
2019-05-16T20:37:47.297Z,61.09
2019-05-16T20:40:20.748Z,62.22
2019-05-16T20:42:53.855Z,63.49
2019-05-16T20:45:27.161Z,64.83
2019-05-16T20:48:10.790Z,61.01
2019-05-16T20:50:34.662Z,56.81
2019-05-16T20:53:07.419Z,54.70
2019-05-16T20:55:40.340Z,55.64
2019-05-16T20:58:12.825Z,57.07
2019-05-16T21:00:46.950Z,58.40
2019-05-16T21:03:20.155Z,59.46
2019-05-16T21:05:53.042Z,60.49
2019-05-16T21:08:26.601Z,61.93
2019-05-16T21:10:59.295Z,63.10
2019-05-16T21:13:32.291Z,64.28
2019-05-16T21:16:07.042Z,60.64
2019-05-16T21:18:39.541Z,56.38
2019-05-16T21:21:12.462Z,54.03
2019-05-16T21:23:46.979Z,54.82
2019-05-16T21:26:19.981Z,56.17
2019-05-16T21:28:52.691Z,57.64
2019-05-16T21:31:27.553Z,59.15
2019-05-16T21:34:00.510Z,60.16
2019-05-16T21:36:33.416Z,61.25
2019-05-16T21:39:08.613Z,62.33
2019-05-16T21:41:41.550Z,63.51
2019-05-16T21:44:14.201Z,64.81
2019-05-16T21:46:47.310Z,60.70
2019-05-16T21:49:20.016Z,56.46
2019-05-16T21:51:52.761Z,54.34
2019-05-16T21:54:28.692Z,55.41
2019-05-16T21:56:59.586Z,56.87
2019-05-16T21:59:32.568Z,58.12
2019-05-16T22:02:05.720Z,59.13
2019-05-16T22:04:38.793Z,60.55
2019-05-16T22:07:13.315Z,61.64
2019-05-16T22:09:46.634Z,62.55
2019-05-16T22:12:19.321Z,63.75
2019-05-16T22:14:54.120Z,59.81
2019-05-16T22:17:27.503Z,55.37
2019-05-16T22:20:00.200Z,53.16
2019-05-16T22:22:32.981Z,54.46
2019-05-16T22:25:07.701Z,56.08
2019-05-16T22:27:40.150Z,57.83
2019-05-16T22:30:17.561Z,59.02
2019-05-16T22:32:50.295Z,60.52
2019-05-16T22:35:23.100Z,61.85
2019-05-16T22:37:59.265Z,63.09
2019-05-16T22:40:32.875Z,64.19
2019-05-16T22:43:09.748Z,60.77
2019-05-16T22:45:39.335Z,56.82
2019-05-16T22:48:12.245Z,54.98
2019-05-16T22:50:44.800Z,56.07
2019-05-16T22:53:17.621Z,57.35
2019-05-16T22:55:50.107Z,58.97
2019-05-16T22:58:23.076Z,60.16
2019-05-16T23:00:57.284Z,61.13
2019-05-16T23:03:30.180Z,62.40
2019-05-16T23:06:03.195Z,63.34
2019-05-16T23:08:36.471Z,59.40
2019-05-16T23:11:09.250Z,56.36
2019-05-16T23:13:41.901Z,57.45
2019-05-16T23:16:16.995Z,58.61
2019-05-16T23:18:49.145Z,60.01
2019-05-16T23:21:21.900Z,61.16
2019-05-16T23:23:56.995Z,62.48
2019-05-16T23:26:30.025Z,63.05
2019-05-16T23:29:02.886Z,58.94
2019-05-16T23:31:36.576Z,56.21
2019-05-16T23:34:09.565Z,57.17
2019-05-16T23:36:42.285Z,58.23
2019-05-16T23:39:15.140Z,59.66
2019-05-16T23:41:47.635Z,60.87
2019-05-16T23:44:20.211Z,62.15
2019-05-16T23:46:52.901Z,63.16
2019-05-16T23:49:27.479Z,63.97
2019-05-16T23:52:00.006Z,59.82
2019-05-16T23:54:32.835Z,56.60
2019-05-16T23:57:06.552Z,54.67
2019-05-16T23:59:39.605Z,55.45
